createdAt,value
2022-11-25T00:00:10.294Z,101033.37
2022-11-25T00:05:18.379Z,101035.05
2022-11-25T00:10:23.771Z,101033.26
2022-11-25T00:15:29.160Z,101030.84
2022-11-25T00:20:34.545Z,101038.73
2022-11-25T00:25:39.939Z,101040.93
2022-11-25T00:30:45.601Z,101039.95
2022-11-25T00:35:51.006Z,101040.00
2022-11-25T00:40:58.028Z,101040.93
2022-11-25T00:46:03.511Z,101041.95
2022-11-25T00:51:09.093Z,101039.55
2022-11-25T00:56:14.480Z,101039.44
2022-11-25T01:01:20.776Z,101034.53
2022-11-25T01:06:26.356Z,101035.20
2022-11-25T01:11:32.365Z,101037.16
2022-11-25T01:16:38.282Z,101042.36
2022-11-25T01:21:45.592Z,101047.77
2022-11-25T01:26:51.165Z,101047.52
2022-11-25T01:31:57.729Z,101051.14
2022-11-25T01:37:03.166Z,101057.46
2022-11-25T01:42:09.026Z,101054.21
2022-11-25T01:47:26.902Z,101053.80
2022-11-25T01:52:35.337Z,101063.92
2022-11-25T01:57:43.778Z,101056.05
2022-11-25T02:02:51.950Z,101058.84
2022-11-25T02:07:59.761Z,101059.06
2022-11-25T02:13:05.344Z,101057.63
2022-11-25T02:18:10.817Z,101046.09
2022-11-25T02:23:25.930Z,101057.37
2022-11-25T02:28:34.346Z,101049.57
2022-11-25T02:33:41.009Z,101058.46
2022-11-25T02:38:52.628Z,101051.20
2022-11-25T02:43:58.563Z,101054.66
2022-11-25T02:49:09.626Z,101053.69
2022-11-25T02:54:14.160Z,101051.60
2022-11-25T02:59:20.100Z,101047.36
2022-11-25T03:04:26.061Z,101049.95
2022-11-25T03:09:31.479Z,101059.37
2022-11-25T03:14:37.196Z,101062.44
2022-11-25T03:19:42.839Z,101057.02
2022-11-25T03:24:49.707Z,101059.27
2022-11-25T03:29:55.401Z,101073.16
2022-11-25T03:35:01.245Z,101071.69
2022-11-25T03:40:08.789Z,101062.63
2022-11-25T03:45:16.494Z,101069.63
2022-11-25T03:50:23.250Z,101073.21
2022-11-25T03:55:28.783Z,101076.99
2022-11-25T04:00:34.417Z,101067.80
2022-11-25T04:05:40.281Z,101070.45
2022-11-25T04:10:45.951Z,101065.19
2022-11-25T04:15:52.801Z,101061.72
2022-11-25T04:20:58.627Z,101057.72
2022-11-25T04:26:04.360Z,101057.45
2022-11-25T04:31:11.883Z,101066.47
2022-11-25T04:36:19.147Z,101080.08
2022-11-25T04:41:25.217Z,101080.50
2022-11-25T04:46:34.499Z,101078.35
2022-11-25T04:51:40.091Z,101080.50
2022-11-25T04:56:47.192Z,101081.33
2022-11-25T05:01:52.989Z,101091.77
2022-11-25T05:07:03.021Z,101085.55
2022-11-25T05:12:11.235Z,101094.33
2022-11-25T05:17:22.662Z,101110.63
2022-11-25T05:22:31.505Z,101105.05
2022-11-25T05:27:37.083Z,101104.30
2022-11-25T05:32:44.845Z,101107.00
2022-11-25T05:37:51.080Z,101123.39
2022-11-25T05:42:56.646Z,101142.02
2022-11-25T05:48:02.664Z,101143.30
2022-11-25T05:53:09.925Z,101139.81
2022-11-25T05:58:15.579Z,101133.34
2022-11-25T06:03:27.707Z,101135.81
2022-11-25T06:08:34.279Z,101143.19
2022-11-25T06:13:41.359Z,101149.27
2022-11-25T06:18:47.470Z,101146.47
2022-11-25T06:23:53.036Z,101159.55
2022-11-25T06:28:59.716Z,101159.09
2022-11-25T06:34:06.665Z,101165.04
2022-11-25T06:39:13.839Z,101166.06
2022-11-25T06:44:19.312Z,101154.39
2022-11-25T06:49:24.757Z,101157.34
2022-11-25T06:54:30.235Z,101162.19
2022-11-25T06:59:35.768Z,101164.39
2022-11-25T07:04:41.317Z,101160.05
2022-11-25T07:09:47.591Z,101165.66
2022-11-25T07:14:53.043Z,101170.02
2022-11-25T07:19:58.436Z,101176.55
2022-11-25T07:25:04.202Z,101173.58
2022-11-25T07:30:54.879Z,101188.92
2022-11-25T07:35:18.366Z,101187.72
2022-11-25T07:40:23.825Z,101188.80
2022-11-25T07:45:29.220Z,101184.62
2022-11-25T07:50:36.388Z,101179.58
2022-11-25T07:55:41.859Z,101186.89
2022-11-25T08:00:47.240Z,101183.27
2022-11-25T08:05:52.721Z,101176.53
2022-11-25T08:10:58.342Z,101182.35
2022-11-25T08:16:04.204Z,101183.73
2022-11-25T08:21:12.822Z,101187.92
2022-11-25T08:26:31.298Z,101192.07
2022-11-25T08:31:39.010Z,101195.44
2022-11-25T08:36:48.196Z,101184.66
2022-11-25T08:41:51.717Z,101195.39
2022-11-25T08:46:57.389Z,101194.92
2022-11-25T08:52:02.925Z,101191.39
2022-11-25T08:57:08.423Z,101186.94
2022-11-25T09:02:16.506Z,101206.22
2022-11-25T09:07:26.070Z,101211.75
2022-11-25T09:12:29.600Z,101210.09
2022-11-25T09:17:36.972Z,101208.70
2022-11-25T09:22:42.448Z,101210.84
2022-11-25T09:27:47.924Z,101210.37
2022-11-25T09:32:55.647Z,101214.42
2022-11-25T09:38:01.580Z,101214.07
2022-11-25T09:43:44.712Z,101216.19
2022-11-25T09:48:57.079Z,101212.90
2022-11-25T09:54:23.737Z,101215.85
2022-11-25T09:59:35.514Z,101211.39
2022-11-25T10:05:02.100Z,101218.00
2022-11-25T10:10:10.433Z,101222.34
2022-11-25T10:15:19.241Z,101214.17
2022-11-25T10:20:33.963Z,101219.97
2022-11-25T10:25:42.856Z,101215.50
2022-11-25T10:31:14.093Z,101214.11
2022-11-25T10:36:28.505Z,101215.91
2022-11-25T10:41:49.072Z,101221.64
2022-11-25T10:47:32.566Z,101211.17
2022-11-25T10:52:43.844Z,101216.57
2022-11-25T10:57:49.388Z,101210.30
2022-11-25T11:02:56.784Z,101209.95
2022-11-25T11:08:14.762Z,101209.63
2022-11-25T11:13:25.864Z,101206.90
2022-11-25T11:18:40.363Z,101215.30
2022-11-25T11:23:51.003Z,101212.97
2022-11-25T11:29:02.534Z,101203.80
2022-11-25T11:34:37.253Z,101210.88
2022-11-25T11:40:11.801Z,101215.80
2022-11-25T11:45:44.070Z,101219.74
2022-11-25T11:50:52.846Z,101233.70
2022-11-25T12:01:39.571Z,101230.37
2022-11-25T12:06:48.014Z,101229.59
2022-11-25T12:11:56.461Z,101221.17
2022-11-25T12:17:04.916Z,101226.41
2022-11-25T12:22:31.674Z,101238.45
2022-11-25T12:27:49.169Z,101233.87
2022-11-25T12:33:06.505Z,101233.87
2022-11-25T12:38:37.305Z,101229.77
2022-11-25T12:43:52.193Z,101224.27
2022-11-25T12:48:59.631Z,101229.66
2022-11-25T12:54:39.941Z,101226.36
2022-11-25T13:00:39.385Z,101220.83
2022-11-25T13:05:41.251Z,101224.77
2022-11-25T13:11:11.749Z,101226.58
2022-11-25T13:16:19.143Z,101231.95
2022-11-25T13:21:27.549Z,101236.95
2022-11-25T13:26:37.755Z,101241.94
2022-11-25T13:32:07.264Z,101238.95
2022-11-25T13:37:36.948Z,101244.11
2022-11-25T13:42:46.914Z,101244.45
2022-11-25T13:47:53.654Z,101255.25
2022-11-25T13:53:04.517Z,101253.36
2022-11-25T13:58:15.796Z,101259.14
2022-11-25T14:03:25.072Z,101257.72
2022-11-25T14:08:45.847Z,101249.06
2022-11-25T14:14:10.701Z,101253.13
2022-11-25T14:19:55.991Z,101249.30
2022-11-25T14:24:56.396Z,101250.53
2022-11-25T14:30:10.748Z,101253.81
2022-11-25T14:35:24.834Z,101258.42
2022-11-25T14:40:47.951Z,101264.72
2022-11-25T14:46:11.799Z,101267.27
2022-11-25T14:51:18.751Z,101272.29
2022-11-25T14:56:27.215Z,101260.16
2022-11-25T15:01:35.149Z,101255.86
2022-11-25T15:06:43.496Z,101265.52
2022-11-25T15:11:50.934Z,101276.89
2022-11-25T15:17:40.189Z,101284.52
2022-11-25T15:22:50.796Z,101289.42
2022-11-25T15:27:56.267Z,101285.47
2022-11-25T15:33:03.763Z,101293.41
2022-11-25T15:38:20.182Z,101289.27
2022-11-25T15:43:29.694Z,101302.47
2022-11-25T15:48:50.190Z,101305.84
2022-11-25T15:54:01.604Z,101300.89
2022-11-25T15:59:08.841Z,101300.51
2022-11-25T16:04:22.446Z,101300.06
2022-11-25T16:09:29.485Z,101295.63
2022-11-25T16:14:37.997Z,101297.87
2022-11-25T16:19:48.718Z,101299.72
2022-11-25T16:25:00.567Z,101306.33
2022-11-25T16:30:14.850Z,101306.27
2022-11-25T16:35:22.356Z,101312.46
2022-11-25T16:40:29.811Z,101307.38
2022-11-25T16:45:35.472Z,101309.22
2022-11-25T16:50:41.033Z,101309.73
2022-11-25T16:55:49.557Z,101305.90
2022-11-25T17:00:57.452Z,101309.38
2022-11-25T17:06:02.872Z,101309.79
2022-11-25T17:11:14.220Z,101310.41
2022-11-25T17:16:23.481Z,101319.00
2022-11-25T17:21:29.775Z,101317.11
2022-11-25T17:26:38.064Z,101320.63
2022-11-25T17:31:45.073Z,101332.61
2022-11-25T17:36:52.369Z,101331.28
2022-11-25T17:41:57.772Z,101338.39
2022-11-25T17:47:03.334Z,101348.62
2022-11-25T17:52:09.527Z,101353.18
2022-11-25T17:57:17.967Z,101359.59
2022-11-25T18:02:23.959Z,101369.05
2022-11-25T18:07:29.451Z,101377.30
2022-11-25T18:12:39.724Z,101378.41
2022-11-25T18:17:45.732Z,101381.12
2022-11-25T18:22:52.973Z,101393.81
2022-11-25T18:28:00.137Z,101392.47
2022-11-25T18:33:09.152Z,101399.16
2022-11-25T18:38:14.613Z,101404.53
2022-11-25T18:43:25.189Z,101405.35
2022-11-25T18:48:30.737Z,101405.67
2022-11-25T18:53:36.140Z,101409.46
2022-11-25T18:58:42.661Z,101412.17
2022-11-25T19:03:48.133Z,101417.44
2022-11-25T19:08:53.520Z,101417.95
2022-11-25T19:14:05.075Z,101425.98
2022-11-25T19:19:13.528Z,101423.73
2022-11-25T19:24:18.929Z,101433.72
2022-11-25T19:29:30.132Z,101436.77
2022-11-25T19:34:39.203Z,101444.84
2022-11-25T19:39:44.769Z,101446.03
2022-11-25T19:44:50.230Z,101450.16
2022-11-25T19:50:01.465Z,101452.73
2022-11-25T19:55:18.752Z,101459.57
2022-11-25T20:00:25.777Z,101457.55
2022-11-25T20:05:35.519Z,101471.86
2022-11-25T20:10:40.926Z,101478.73
2022-11-25T20:15:47.265Z,101487.31
2022-11-25T20:20:56.822Z,101493.31
2022-11-25T20:26:04.046Z,101499.02
2022-11-25T20:31:13.739Z,101504.34
2022-11-25T20:36:22.161Z,101513.86
2022-11-25T20:41:29.407Z,101516.94
2022-11-25T20:46:34.805Z,101520.42
2022-11-25T20:51:42.139Z,101521.75
2022-11-25T20:56:47.752Z,101528.69
2022-11-25T21:01:54.935Z,101521.89
2022-11-25T21:07:01.133Z,101528.67
2022-11-25T21:12:12.459Z,101530.83
2022-11-25T21:17:16.885Z,101529.30
2022-11-25T21:22:23.281Z,101538.98
2022-11-25T21:27:29.357Z,101533.30
2022-11-25T21:32:36.127Z,101532.91
2022-11-25T21:37:44.386Z,101540.69
2022-11-25T21:42:49.847Z,101544.12
2022-11-25T21:47:55.231Z,101538.16
2022-11-25T21:53:01.123Z,101546.78
2022-11-25T21:58:08.506Z,101545.63
2022-11-25T22:03:19.336Z,101549.49
2022-11-25T22:08:24.764Z,101551.28
2022-11-25T22:13:33.264Z,101550.87
2022-11-25T22:18:38.807Z,101563.09
2022-11-25T22:23:44.576Z,101567.37
2022-11-25T22:28:52.876Z,101573.19
2022-11-25T22:33:58.418Z,101569.31
2022-11-25T22:39:13.195Z,101567.00
2022-11-25T22:44:21.632Z,101573.80
2022-11-25T22:49:41.926Z,101578.47
2022-11-25T22:54:47.570Z,101579.95
2022-11-25T22:59:53.044Z,101587.06
2022-11-25T23:04:58.844Z,101591.30
2022-11-25T23:10:05.738Z,101593.67
2022-11-25T23:15:32.084Z,101596.83
2022-11-25T23:20:39.387Z,101596.87
2022-11-25T23:25:45.223Z,101601.11
2022-11-25T23:30:53.529Z,101605.48
2022-11-25T23:36:03.667Z,101609.80
2022-11-25T23:41:09.568Z,101608.25
2022-11-25T23:46:17.081Z,101617.40
2022-11-25T23:51:23.829Z,101621.14
2022-11-25T23:56:29.843Z,101622.97
